sensor_id;sensor_type;location;lat;lon;timestamp;pressure;altitude;pressure_sealevel;temperature;humidity
68169;BME280;54981;50.206;15.978;2022-11-15T00:01:22;99029.78;;;3.10;100.00
68169;BME280;54981;50.206;15.978;2022-11-15T00:03:51;99023.69;;;3.08;100.00
68169;BME280;54981;50.206;15.978;2022-11-15T00:06:16;99020.13;;;3.09;100.00
68169;BME280;54981;50.206;15.978;2022-11-15T00:08:42;99019.31;;;3.07;100.00
68169;BME280;54981;50.206;15.978;2022-11-15T00:11:10;99022.94;;;3.03;100.00
68169;BME280;54981;50.206;15.978;2022-11-15T00:13:35;99022.00;;;3.06;100.00
68169;BME280;54981;50.206;15.978;2022-11-15T00:16:01;99022.59;;;2.78;100.00
68169;BME280;54981;50.206;15.978;2022-11-15T00:18:26;99022.88;;;2.66;100.00
68169;BME280;54981;50.206;15.978;2022-11-15T00:20:52;99021.19;;;2.62;100.00
68169;BME280;54981;50.206;15.978;2022-11-15T00:23:17;99024.75;;;2.59;100.00
68169;BME280;54981;50.206;15.978;2022-11-15T00:25:43;99024.84;;;2.54;100.00
68169;BME280;54981;50.206;15.978;2022-11-15T00:28:08;99031.03;;;2.53;100.00
68169;BME280;54981;50.206;15.978;2022-11-15T00:30:33;99027.34;;;2.62;100.00
68169;BME280;54981;50.206;15.978;2022-11-15T00:33:06;99026.41;;;2.65;100.00
68169;BME280;54981;50.206;15.978;2022-11-15T00:35:33;99029.94;;;2.64;100.00
68169;BME280;54981;50.206;15.978;2022-11-15T00:37:59;99024.50;;;2.71;100.00
68169;BME280;54981;50.206;15.978;2022-11-15T00:40:24;99016.59;;;2.73;100.00
68169;BME280;54981;50.206;15.978;2022-11-15T00:42:49;99018.28;;;2.75;100.00
68169;BME280;54981;50.206;15.978;2022-11-15T00:45:15;99022.63;;;2.76;100.00
68169;BME280;54981;50.206;15.978;2022-11-15T00:47:40;99018.41;;;2.69;100.00
68169;BME280;54981;50.206;15.978;2022-11-15T00:50:06;99017.13;;;2.47;100.00
68169;BME280;54981;50.206;15.978;2022-11-15T00:52:31;99021.91;;;2.28;100.00
68169;BME280;54981;50.206;15.978;2022-11-15T00:54:56;99006.16;;;2.28;100.00
68169;BME280;54981;50.206;15.978;2022-11-15T00:57:22;99003.44;;;2.32;100.00
68169;BME280;54981;50.206;15.978;2022-11-15T00:59:47;99000.63;;;2.42;100.00
68169;BME280;54981;50.206;15.978;2022-11-15T01:02:12;99000.41;;;2.51;100.00
68169;BME280;54981;50.206;15.978;2022-11-15T01:04:38;98996.84;;;2.55;100.00
68169;BME280;54981;50.206;15.978;2022-11-15T01:07:04;98991.53;;;2.56;100.00
68169;BME280;54981;50.206;15.978;2022-11-15T01:09:29;98987.09;;;2.60;100.00
68169;BME280;54981;50.206;15.978;2022-11-15T01:11:54;98988.72;;;2.64;100.00
68169;BME280;54981;50.206;15.978;2022-11-15T01:14:20;98993.19;;;2.62;100.00
68169;BME280;54981;50.206;15.978;2022-11-15T01:16:45;98992.16;;;2.68;100.00
68169;BME280;54981;50.206;15.978;2022-11-15T01:19:10;98996.47;;;2.30;100.00
68169;BME280;54981;50.206;15.978;2022-11-15T01:21:36;99003.16;;;2.03;100.00
68169;BME280;54981;50.206;15.978;2022-11-15T01:24:02;98999.69;;;2.01;100.00
68169;BME280;54981;50.206;15.978;2022-11-15T01:26:27;98992.66;;;2.01;100.00
68169;BME280;54981;50.206;15.978;2022-11-15T01:28:52;98987.34;;;2.04;100.00
68169;BME280;54981;50.206;15.978;2022-11-15T01:31:20;98988.09;;;2.12;100.00
68169;BME280;54981;50.206;15.978;2022-11-15T01:33:46;98980.78;;;2.27;100.00
68169;BME280;54981;50.206;15.978;2022-11-15T01:36:15;98980.69;;;2.31;100.00
68169;BME280;54981;50.206;15.978;2022-11-15T01:38:40;98972.66;;;2.38;100.00
68169;BME280;54981;50.206;15.978;2022-11-15T01:41:06;98974.34;;;2.40;100.00
68169;BME280;54981;50.206;15.978;2022-11-15T01:43:36;98982.22;;;2.42;100.00
68169;BME280;54981;50.206;15.978;2022-11-15T01:46:30;98980.97;;;2.18;100.00
68169;BME280;54981;50.206;15.978;2022-11-15T01:48:59;98982.66;;;1.77;100.00
68169;BME280;54981;50.206;15.978;2022-11-15T01:51:26;98982.56;;;1.81;100.00
68169;BME280;54981;50.206;15.978;2022-11-15T01:53:57;98972.09;;;1.80;100.00
68169;BME280;54981;50.206;15.978;2022-11-15T01:56:27;98979.81;;;1.87;100.00
68169;BME280;54981;50.206;15.978;2022-11-15T01:58:57;98980.63;;;1.91;100.00
68169;BME280;54981;50.206;15.978;2022-11-15T02:01:25;98969.00;;;2.03;100.00
68169;BME280;54981;50.206;15.978;2022-11-15T02:03:59;98967.16;;;2.08;100.00
68169;BME280;54981;50.206;15.978;2022-11-15T02:06:26;98960.81;;;2.18;100.00
68169;BME280;54981;50.206;15.978;2022-11-15T02:08:51;98956.03;;;2.37;100.00
68169;BME280;54981;50.206;15.978;2022-11-15T02:11:17;98943.72;;;2.41;100.00
68169;BME280;54981;50.206;15.978;2022-11-15T02:13:43;98947.13;;;2.44;100.00
68169;BME280;54981;50.206;15.978;2022-11-15T02:19:12;98940.31;;;1.94;100.00
68169;BME280;54981;50.206;15.978;2022-11-15T02:22:25;98940.75;;;1.70;100.00
68169;BME280;54981;50.206;15.978;2022-11-15T02:27:58;98928.63;;;1.65;100.00
68169;BME280;54981;50.206;15.978;2022-11-15T02:32:54;98933.00;;;1.64;100.00
68169;BME280;54981;50.206;15.978;2022-11-15T02:35:59;98927.63;;;1.72;100.00
68169;BME280;54981;50.206;15.978;2022-11-15T02:41:04;98922.22;;;1.80;100.00
68169;BME280;54981;50.206;15.978;2022-11-15T02:43:40;98924.03;;;1.76;100.00
68169;BME280;54981;50.206;15.978;2022-11-15T02:46:44;98922.38;;;1.72;100.00
68169;BME280;54981;50.206;15.978;2022-11-15T02:49:31;98918.03;;;1.71;100.00
68169;BME280;54981;50.206;15.978;2022-11-15T02:51:57;98918.03;;;1.71;100.00
68169;BME280;54981;50.206;15.978;2022-11-15T02:54:26;98910.97;;;1.73;100.00
68169;BME280;54981;50.206;15.978;2022-11-15T02:56:53;98919.66;;;1.77;100.00
68169;BME280;54981;50.206;15.978;2022-11-15T02:59:43;98909.16;;;1.77;100.00
68169;BME280;54981;50.206;15.978;2022-11-15T03:05:18;98902.81;;;1.87;100.00
68169;BME280;54981;50.206;15.978;2022-11-15T03:07:52;98898.38;;;1.90;100.00
68169;BME280;54981;50.206;15.978;2022-11-15T03:13:26;98894.63;;;2.02;100.00
68169;BME280;54981;50.206;15.978;2022-11-15T03:16:27;98891.84;;;2.08;100.00
68169;BME280;54981;50.206;15.978;2022-11-15T03:18:55;98887.47;;;2.09;100.00
68169;BME280;54981;50.206;15.978;2022-11-15T03:21:22;98884.06;;;2.05;100.00
68169;BME280;54981;50.206;15.978;2022-11-15T03:23:50;98885.25;;;1.90;100.00
68169;BME280;54981;50.206;15.978;2022-11-15T03:26:19;98883.84;;;1.74;100.00
68169;BME280;54981;50.206;15.978;2022-11-15T03:28:53;98871.81;;;1.64;100.00
68169;BME280;54981;50.206;15.978;2022-11-15T03:31:21;98882.47;;;1.55;100.00
68169;BME280;54981;50.206;15.978;2022-11-15T03:34:10;98879.06;;;1.49;100.00
68169;BME280;54981;50.206;15.978;2022-11-15T03:36:37;98881.63;;;1.53;100.00
68169;BME280;54981;50.206;15.978;2022-11-15T03:39:06;98879.13;;;1.46;100.00
68169;BME280;54981;50.206;15.978;2022-11-15T03:41:40;98874.09;;;1.34;100.00
68169;BME280;54981;50.206;15.978;2022-11-15T03:49:40;98862.22;;;1.16;100.00
68169;BME280;54981;50.206;15.978;2022-11-15T03:52:09;98859.44;;;1.24;100.00
68169;BME280;54981;50.206;15.978;2022-11-15T03:54:35;98861.06;;;1.31;100.00
68169;BME280;54981;50.206;15.978;2022-11-15T03:57:00;98864.38;;;1.41;100.00
68169;BME280;54981;50.206;15.978;2022-11-15T03:59:26;98861.47;;;1.55;100.00
68169;BME280;54981;50.206;15.978;2022-11-15T04:01:51;98862.25;;;1.60;100.00
68169;BME280;54981;50.206;15.978;2022-11-15T04:04:16;98869.97;;;1.66;100.00
68169;BME280;54981;50.206;15.978;2022-11-15T04:06:42;98868.25;;;1.66;100.00
68169;BME280;54981;50.206;15.978;2022-11-15T04:09:07;98864.72;;;1.66;100.00
68169;BME280;54981;50.206;15.978;2022-11-15T04:11:32;98860.41;;;1.65;100.00
68169;BME280;54981;50.206;15.978;2022-11-15T04:13:58;98855.97;;;1.67;100.00
68169;BME280;54981;50.206;15.978;2022-11-15T04:16:23;98852.34;;;1.73;100.00
68169;BME280;54981;50.206;15.978;2022-11-15T04:18:48;98849.63;;;1.79;100.00
68169;BME280;54981;50.206;15.978;2022-11-15T04:21:34;98851.16;;;1.87;100.00
68169;BME280;54981;50.206;15.978;2022-11-15T04:24:17;98858.28;;;1.82;100.00
68169;BME280;54981;50.206;15.978;2022-11-15T04:26:43;98857.31;;;1.44;100.00
68169;BME280;54981;50.206;15.978;2022-11-15T04:29:08;98864.91;;;1.13;100.00
68169;BME280;54981;50.206;15.978;2022-11-15T04:31:52;98869.16;;;1.19;100.00
68169;BME280;54981;50.206;15.978;2022-11-15T04:34:17;98869.03;;;1.25;100.00
68169;BME280;54981;50.206;15.978;2022-11-15T04:36:43;98871.53;;;1.31;100.00
68169;BME280;54981;50.206;15.978;2022-11-15T04:39:26;98862.66;;;1.40;100.00
68169;BME280;54981;50.206;15.978;2022-11-15T04:41:52;98864.44;;;1.36;100.00
68169;BME280;54981;50.206;15.978;2022-11-15T04:44:17;98868.09;;;1.29;100.00
68169;BME280;54981;50.206;15.978;2022-11-15T04:46:43;98867.16;;;1.32;100.00
68169;BME280;54981;50.206;15.978;2022-11-15T04:49:08;98872.47;;;1.30;100.00
68169;BME280;54981;50.206;15.978;2022-11-15T04:51:33;98873.56;;;1.17;100.00
68169;BME280;54981;50.206;15.978;2022-11-15T04:53:59;98876.19;;;1.17;100.00
68169;BME280;54981;50.206;15.978;2022-11-15T04:56:24;98872.72;;;1.15;100.00
68169;BME280;54981;50.206;15.978;2022-11-15T04:58:50;98865.78;;;1.12;100.00
68169;BME280;54981;50.206;15.978;2022-11-15T05:01:15;98871.00;;;1.12;100.00
68169;BME280;54981;50.206;15.978;2022-11-15T05:03:42;98866.69;;;1.10;100.00
68169;BME280;54981;50.206;15.978;2022-11-15T05:06:26;98867.59;;;1.09;100.00
68169;BME280;54981;50.206;15.978;2022-11-15T05:08:51;98862.38;;;1.05;100.00
68169;BME280;54981;50.206;15.978;2022-11-15T05:11:17;98857.91;;;1.11;100.00
68169;BME280;54981;50.206;15.978;2022-11-15T05:13:43;98860.53;;;1.11;100.00
68169;BME280;54981;50.206;15.978;2022-11-15T05:16:08;98860.59;;;1.08;100.00
68169;BME280;54981;50.206;15.978;2022-11-15T05:18:34;98858.84;;;1.08;100.00
68169;BME280;54981;50.206;15.978;2022-11-15T05:21:10;98849.34;;;1.04;100.00
68169;BME280;54981;50.206;15.978;2022-11-15T05:23:35;98851.25;;;0.94;100.00
68169;BME280;54981;50.206;15.978;2022-11-15T05:26:02;98839.00;;;0.95;100.00
68169;BME280;54981;50.206;15.978;2022-11-15T05:28:28;98830.28;;;0.93;100.00
68169;BME280;54981;50.206;15.978;2022-11-15T05:30:53;98838.09;;;0.97;100.00
68169;BME280;54981;50.206;15.978;2022-11-15T05:33:18;98837.19;;;0.98;100.00
68169;BME280;54981;50.206;15.978;2022-11-15T05:35:50;98834.47;;;1.04;100.00
68169;BME280;54981;50.206;15.978;2022-11-15T05:38:20;98825.59;;;1.12;100.00
68169;BME280;54981;50.206;15.978;2022-11-15T05:40:45;98833.22;;;1.22;100.00
68169;BME280;54981;50.206;15.978;2022-11-15T05:43:11;98839.38;;;1.21;100.00
68169;BME280;54981;50.206;15.978;2022-11-15T05:45:36;98843.00;;;1.16;100.00
68169;BME280;54981;50.206;15.978;2022-11-15T05:48:05;98847.34;;;1.15;100.00
68169;BME280;54981;50.206;15.978;2022-11-15T05:50:33;98851.09;;;1.02;100.00
68169;BME280;54981;50.206;15.978;2022-11-15T05:53:00;98856.81;;;0.74;100.00
68169;BME280;54981;50.206;15.978;2022-11-15T05:55:26;98858.63;;;0.72;100.00
68169;BME280;54981;50.206;15.978;2022-11-15T05:57:51;98859.25;;;0.31;100.00
68169;BME280;54981;50.206;15.978;2022-11-15T06:00:16;98860.16;;;0.30;100.00
68169;BME280;54981;50.206;15.978;2022-11-15T06:02:42;98860.09;;;0.34;100.00
68169;BME280;54981;50.206;15.978;2022-11-15T06:05:07;98863.50;;;0.38;100.00
68169;BME280;54981;50.206;15.978;2022-11-15T06:07:33;98861.78;;;0.37;100.00
68169;BME280;54981;50.206;15.978;2022-11-15T06:09:58;98860.97;;;0.33;100.00
68169;BME280;54981;50.206;15.978;2022-11-15T06:12:23;98860.88;;;0.38;100.00
68169;BME280;54981;50.206;15.978;2022-11-15T06:14:49;98864.22;;;0.48;100.00
68169;BME280;54981;50.206;15.978;2022-11-15T06:17:14;98861.66;;;0.46;100.00
68169;BME280;54981;50.206;15.978;2022-11-15T06:19:39;98862.53;;;0.45;100.00
68169;BME280;54981;50.206;15.978;2022-11-15T06:22:05;98861.53;;;0.52;100.00
68169;BME280;54981;50.206;15.978;2022-11-15T06:24:30;98858.00;;;0.56;100.00
68169;BME280;54981;50.206;15.978;2022-11-15T06:26:55;98863.19;;;0.59;100.00
68169;BME280;54981;50.206;15.978;2022-11-15T06:29:22;98860.41;;;0.70;100.00
68169;BME280;54981;50.206;15.978;2022-11-15T06:31:47;98858.72;;;0.64;100.00
68169;BME280;54981;50.206;15.978;2022-11-15T06:34:13;98856.16;;;0.61;100.00
68169;BME280;54981;50.206;15.978;2022-11-15T06:36:38;98858.06;;;0.53;100.00
68169;BME280;54981;50.206;15.978;2022-11-15T06:39:04;98861.81;;;0.35;100.00
68169;BME280;54981;50.206;15.978;2022-11-15T06:41:29;98867.41;;;0.12;100.00
68169;BME280;54981;50.206;15.978;2022-11-15T06:43:55;98866.44;;;0.18;100.00
68169;BME280;54981;50.206;15.978;2022-11-15T06:46:21;98874.09;;;0.32;100.00
68169;BME280;54981;50.206;15.978;2022-11-15T06:48:46;98870.38;;;0.45;100.00
68169;BME280;54981;50.206;15.978;2022-11-15T06:51:12;98872.81;;;0.57;100.00
68169;BME280;54981;50.206;15.978;2022-11-15T06:53:38;98876.13;;;0.70;100.00
68169;BME280;54981;50.206;15.978;2022-11-15T06:56:05;98876.78;;;0.81;100.00
68169;BME280;54981;50.206;15.978;2022-11-15T06:58:31;98874.84;;;0.94;100.00
68169;BME280;54981;50.206;15.978;2022-11-15T07:01:01;98878.94;;;1.09;100.00
68169;BME280;54981;50.206;15.978;2022-11-15T07:03:28;98875.19;;;1.22;100.00
68169;BME280;54981;50.206;15.978;2022-11-15T07:05:54;98878.50;;;1.34;100.00
68169;BME280;54981;50.206;15.978;2022-11-15T07:08:21;98883.50;;;1.46;100.00
68169;BME280;54981;50.206;15.978;2022-11-15T07:10:47;98885.97;;;1.54;100.00
68169;BME280;54981;50.206;15.978;2022-11-15T07:13:12;98882.38;;;1.59;100.00
68169;BME280;54981;50.206;15.978;2022-11-15T07:15:37;98877.03;;;1.64;100.00
68169;BME280;54981;50.206;15.978;2022-11-15T07:18:03;98878.84;;;1.62;100.00
68169;BME280;54981;50.206;15.978;2022-11-15T07:20:28;98874.28;;;1.70;100.00
68169;BME280;54981;50.206;15.978;2022-11-15T07:23:04;98868.16;;;1.71;100.00
68169;BME280;54981;50.206;15.978;2022-11-15T07:25:30;98869.72;;;1.80;100.00
68169;BME280;54981;50.206;15.978;2022-11-15T07:27:56;98877.38;;;1.90;100.00
68169;BME280;54981;50.206;15.978;2022-11-15T07:30:22;98879.84;;;1.97;100.00
68169;BME280;54981;50.206;15.978;2022-11-15T07:32:55;98874.78;;;1.89;100.00
68169;BME280;54981;50.206;15.978;2022-11-15T07:35:21;98883.69;;;1.80;100.00
68169;BME280;54981;50.206;15.978;2022-11-15T07:38:01;98875.88;;;1.79;100.00
68169;BME280;54981;50.206;15.978;2022-11-15T07:40:28;98880.75;;;1.96;100.00
68169;BME280;54981;50.206;15.978;2022-11-15T07:43:02;98879.63;;;2.07;100.00
68169;BME280;54981;50.206;15.978;2022-11-15T07:45:28;98869.84;;;2.14;100.00
68169;BME280;54981;50.206;15.978;2022-11-15T07:47:54;98866.16;;;2.23;100.00
68169;BME280;54981;50.206;15.978;2022-11-15T07:50:21;98872.00;;;2.35;100.00
68169;BME280;54981;50.206;15.978;2022-11-15T07:52:46;98863.06;;;2.43;100.00
68169;BME280;54981;50.206;15.978;2022-11-15T07:55:12;98862.06;;;2.48;100.00
68169;BME280;54981;50.206;15.978;2022-11-15T07:57:37;98852.41;;;2.49;100.00
68169;BME280;54981;50.206;15.978;2022-11-15T08:00:04;98857.03;;;2.39;100.00
68169;BME280;54981;50.206;15.978;2022-11-15T08:02:30;98865.94;;;2.33;100.00
68169;BME280;54981;50.206;15.978;2022-11-15T08:04:55;98859.13;;;2.23;100.00
68169;BME280;54981;50.206;15.978;2022-11-15T08:07:21;98859.97;;;2.25;100.00
68169;BME280;54981;50.206;15.978;2022-11-15T08:09:46;98850.13;;;2.35;100.00
68169;BME280;54981;50.206;15.978;2022-11-15T08:12:11;98858.59;;;2.48;100.00
68169;BME280;54981;50.206;15.978;2022-11-15T08:14:37;98860.03;;;2.60;100.00
68169;BME280;54981;50.206;15.978;2022-11-15T08:17:02;98857.06;;;2.73;100.00
68169;BME280;54981;50.206;15.978;2022-11-15T08:19:27;98852.41;;;2.86;100.00
68169;BME280;54981;50.206;15.978;2022-11-15T08:21:52;98850.22;;;3.02;100.00
68169;BME280;54981;50.206;15.978;2022-11-15T08:24:18;98840.94;;;3.22;100.00
68169;BME280;54981;50.206;15.978;2022-11-15T08:26:43;98843.78;;;3.47;100.00
68169;BME280;54981;50.206;15.978;2022-11-15T08:29:09;98839.94;;;3.58;100.00
68169;BME280;54981;50.206;15.978;2022-11-15T08:31:36;98845.44;;;3.80;100.00
68169;BME280;54981;50.206;15.978;2022-11-15T08:34:02;98843.22;;;3.96;100.00
68169;BME280;54981;50.206;15.978;2022-11-15T08:36:28;98832.97;;;4.15;100.00
68169;BME280;54981;50.206;15.978;2022-11-15T08:38:53;98843.06;;;4.31;100.00
68169;BME280;54981;50.206;15.978;2022-11-15T08:41:32;98837.69;;;4.34;100.00
68169;BME280;54981;50.206;15.978;2022-11-15T08:43:58;98829.13;;;4.54;100.00
68169;BME280;54981;50.206;15.978;2022-11-15T08:46:23;98832.25;;;4.93;100.00
68169;BME280;54981;50.206;15.978;2022-11-15T08:48:48;98827.84;;;5.19;100.00
68169;BME280;54981;50.206;15.978;2022-11-15T08:51:14;98827.88;;;5.42;100.00
68169;BME280;54981;50.206;15.978;2022-11-15T08:53:39;98827.16;;;5.62;100.00
68169;BME280;54981;50.206;15.978;2022-11-15T08:56:12;98823.28;;;5.72;100.00
68169;BME280;54981;50.206;15.978;2022-11-15T08:58:38;98833.72;;;5.75;100.00
68169;BME280;54981;50.206;15.978;2022-11-15T09:01:04;98833.44;;;5.83;100.00
68169;BME280;54981;50.206;15.978;2022-11-15T09:03:30;98835.69;;;5.94;100.00
68169;BME280;54981;50.206;15.978;2022-11-15T09:05:59;98826.34;;;5.84;100.00
68169;BME280;54981;50.206;15.978;2022-11-15T09:08:29;98828.09;;;5.85;100.00
68169;BME280;54981;50.206;15.978;2022-11-15T09:10:55;98820.09;;;5.86;100.00
68169;BME280;54981;50.206;15.978;2022-11-15T09:13:21;98825.72;;;5.77;100.00
68169;BME280;54981;50.206;15.978;2022-11-15T09:15:46;98823.41;;;5.91;100.00
68169;BME280;54981;50.206;15.978;2022-11-15T09:18:11;98821.13;;;6.06;100.00
68169;BME280;54981;50.206;15.978;2022-11-15T09:20:37;98827.22;;;6.31;100.00
68169;BME280;54981;50.206;15.978;2022-11-15T09:23:04;98823.09;;;6.46;100.00
68169;BME280;54981;50.206;15.978;2022-11-15T09:25:30;98817.06;;;6.65;100.00
68169;BME280;54981;50.206;15.978;2022-11-15T09:27:56;98811.91;;;6.82;100.00
68169;BME280;54981;50.206;15.978;2022-11-15T09:30:22;98808.03;;;6.91;100.00
68169;BME280;54981;50.206;15.978;2022-11-15T09:32:48;98810.22;;;7.01;100.00
68169;BME280;54981;50.206;15.978;2022-11-15T09:35:13;98806.38;;;7.09;100.00
68169;BME280;54981;50.206;15.978;2022-11-15T09:37:39;98806.03;;;7.16;100.00
68169;BME280;54981;50.206;15.978;2022-11-15T09:40:05;98808.03;;;7.32;100.00
68169;BME280;54981;50.206;15.978;2022-11-15T09:45:20;98795.84;;;7.48;100.00
68169;BME280;54981;50.206;15.978;2022-11-15T09:48:00;98799.00;;;7.56;100.00
68169;BME280;54981;50.206;15.978;2022-11-15T09:52:57;98799.22;;;7.71;100.00
68169;BME280;54981;50.206;15.978;2022-11-15T09:55:32;98788.56;;;7.72;100.00
68169;BME280;54981;50.206;15.978;2022-11-15T09:58:26;98779.03;;;7.68;100.00
68169;BME280;54981;50.206;15.978;2022-11-15T10:00:54;98779.84;;;7.70;100.00
68169;BME280;54981;50.206;15.978;2022-11-15T10:03:29;98779.25;;;7.82;100.00
68169;BME280;54981;50.206;15.978;2022-11-15T10:06:00;98779.25;;;7.82;100.00
68169;BME280;54981;50.206;15.978;2022-11-15T10:11:12;98777.53;;;7.81;100.00
68169;BME280;54981;50.206;15.978;2022-11-15T10:13:42;98771.16;;;7.85;100.00
68169;BME280;54981;50.206;15.978;2022-11-15T10:19:22;98767.78;;;8.01;100.00
68169;BME280;54981;50.206;15.978;2022-11-15T10:21:56;98763.34;;;8.01;100.00
68169;BME280;54981;50.206;15.978;2022-11-15T10:24:26;98762.63;;;7.98;100.00
68169;BME280;54981;50.206;15.978;2022-11-15T10:26:54;98753.75;;;7.99;100.00
68169;BME280;54981;50.206;15.978;2022-11-15T10:29:22;98756.25;;;8.02;100.00
68169;BME280;54981;50.206;15.978;2022-11-15T10:31:47;98748.25;;;8.03;100.00
68169;BME280;54981;50.206;15.978;2022-11-15T10:34:15;98753.44;;;8.05;100.00
68169;BME280;54981;50.206;15.978;2022-11-15T10:36:58;98747.50;;;8.00;100.00
68169;BME280;54981;50.206;15.978;2022-11-15T10:39:24;98748.31;;;8.02;100.00
68169;BME280;54981;50.206;15.978;2022-11-15T10:41:50;98748.16;;;8.05;100.00
68169;BME280;54981;50.206;15.978;2022-11-15T10:44:27;98740.97;;;8.07;100.00
68169;BME280;54981;50.206;15.978;2022-11-15T10:49:26;98726.50;;;8.14;100.00
68169;BME280;54981;50.206;15.978;2022-11-15T10:51:57;98729.09;;;8.16;100.00
68169;BME280;54981;50.206;15.978;2022-11-15T10:56:54;98724.19;;;8.25;100.00
68169;BME280;54981;50.206;15.978;2022-11-15T10:59:42;98716.69;;;8.16;100.00
68169;BME280;54981;50.206;15.978;2022-11-15T11:02:55;98715.88;;;8.14;100.00
68169;BME280;54981;50.206;15.978;2022-11-15T11:05:36;98714.59;;;8.23;100.00
68169;BME280;54981;50.206;15.978;2022-11-15T11:08:05;98714.38;;;8.27;100.00
68169;BME280;54981;50.206;15.978;2022-11-15T11:10:34;98712.63;;;8.26;100.00
68169;BME280;54981;50.206;15.978;2022-11-15T11:13:14;98700.78;;;8.33;100.00
68169;BME280;54981;50.206;15.978;2022-11-15T11:15:44;98701.97;;;8.28;100.00
68169;BME280;54981;50.206;15.978;2022-11-15T11:18:19;98700.78;;;8.33;100.00
68169;BME280;54981;50.206;15.978;2022-11-15T11:20:52;98699.94;;;8.33;100.00
68169;BME280;54981;50.206;15.978;2022-11-15T11:23:54;98704.88;;;8.41;100.00
68169;BME280;54981;50.206;15.978;2022-11-15T11:37:13;98689.59;;;8.63;100.00
68169;BME280;54981;50.206;15.978;2022-11-15T11:48:23;98654.97;;;8.82;100.00
68169;BME280;54981;50.206;15.978;2022-11-15T11:50:59;98651.53;;;8.80;100.00
68169;BME280;54981;50.206;15.978;2022-11-15T11:53:35;98642.31;;;8.87;100.00
68169;BME280;54981;50.206;15.978;2022-11-15T11:56:16;98639.13;;;8.98;100.00
68169;BME280;54981;50.206;15.978;2022-11-15T11:58:46;98635.44;;;9.01;100.00
68169;BME280;54981;50.206;15.978;2022-11-15T12:01:17;98626.63;;;9.00;100.00
68169;BME280;54981;50.206;15.978;2022-11-15T12:03:55;98621.31;;;9.00;100.00
68169;BME280;54981;50.206;15.978;2022-11-15T12:15:04;98611.34;;;9.04;100.00
68169;BME280;54981;50.206;15.978;2022-11-15T12:17:36;98612.56;;;8.98;100.00
68169;BME280;54981;50.206;15.978;2022-11-15T12:20:23;98607.84;;;9.03;100.00
68169;BME280;54981;50.206;15.978;2022-11-15T12:22:56;98605.38;;;9.00;100.00
68169;BME280;54981;50.206;15.978;2022-11-15T12:30:17;98596.03;;;8.93;100.00
68169;BME280;54981;50.206;15.978;2022-11-15T12:32:55;98592.59;;;8.91;100.00
68169;BME280;54981;50.206;15.978;2022-11-15T12:35:42;98584.56;;;8.92;100.00
68169;BME280;54981;50.206;15.978;2022-11-15T12:38:12;98573.22;;;8.89;100.00
68169;BME280;54981;50.206;15.978;2022-11-15T12:40:39;98572.44;;;8.87;100.00
68169;BME280;54981;50.206;15.978;2022-11-15T12:43:38;98571.41;;;8.89;100.00
68169;BME280;54981;50.206;15.978;2022-11-15T12:46:05;98552.94;;;8.88;100.00
68169;BME280;54981;50.206;15.978;2022-11-15T12:51:01;98543.25;;;8.87;100.00
68169;BME280;54981;50.206;15.978;2022-11-15T12:53:35;98544.81;;;8.91;100.00
68169;BME280;54981;50.206;15.978;2022-11-15T12:58:58;98539.13;;;8.81;100.00
68169;BME280;54981;50.206;15.978;2022-11-15T13:17:40;98524.66;;;8.71;100.00
68169;BME280;54981;50.206;15.978;2022-11-15T13:22:46;98515.75;;;8.72;100.00
68169;BME280;54981;50.206;15.978;2022-11-15T13:28:10;98514.09;;;8.69;100.00
68169;BME280;54981;50.206;15.978;2022-11-15T13:30:36;98511.63;;;8.66;100.00
68169;BME280;54981;50.206;15.978;2022-11-15T13:33:24;98513.41;;;8.66;100.00
68169;BME280;54981;50.206;15.978;2022-11-15T13:35:58;98504.59;;;8.65;100.00
68169;BME280;54981;50.206;15.978;2022-11-15T13:40:49;98503.91;;;8.62;100.00
68169;BME280;54981;50.206;15.978;2022-11-15T13:43:35;98504.00;;;8.60;100.00
68169;BME280;54981;50.206;15.978;2022-11-15T13:46:11;98502.28;;;8.59;100.00
68169;BME280;54981;50.206;15.978;2022-11-15T13:48:39;98502.88;;;8.64;100.00
68169;BME280;54981;50.206;15.978;2022-11-15T13:53:39;98489.94;;;8.58;100.00
68169;BME280;54981;50.206;15.978;2022-11-15T13:56:06;98489.78;;;8.61;100.00
68169;BME280;54981;50.206;15.978;2022-11-15T13:58:31;98489.88;;;8.60;100.00
68169;BME280;54981;50.206;15.978;2022-11-15T14:01:03;98481.84;;;8.61;100.00
68169;BME280;54981;50.206;15.978;2022-11-15T14:03:55;98479.19;;;8.61;100.00
68169;BME280;54981;50.206;15.978;2022-11-15T14:06:24;98475.66;;;8.61;100.00
68169;BME280;54981;50.206;15.978;2022-11-15T14:09:29;98469.50;;;8.60;100.00
68169;BME280;54981;50.206;15.978;2022-11-15T14:11:54;98471.22;;;8.61;100.00
68169;BME280;54981;50.206;15.978;2022-11-15T14:14:22;98466.84;;;8.60;100.00
68169;BME280;54981;50.206;15.978;2022-11-15T14:16:53;98464.34;;;8.57;100.00
68169;BME280;54981;50.206;15.978;2022-11-15T14:22:12;98466.22;;;8.55;100.00
68169;BME280;54981;50.206;15.978;2022-11-15T14:24:39;98458.44;;;8.52;100.00
68169;BME280;54981;50.206;15.978;2022-11-15T14:27:26;98465.38;;;8.55;100.00
68169;BME280;54981;50.206;15.978;2022-11-15T14:29:52;98468.09;;;8.53;100.00
68169;BME280;54981;50.206;15.978;2022-11-15T14:32:26;98465.28;;;8.56;100.00
68169;BME280;54981;50.206;15.978;2022-11-15T14:34:59;98461.53;;;8.60;100.00
68169;BME280;54981;50.206;15.978;2022-11-15T14:37:30;98451.25;;;8.70;100.00
68169;BME280;54981;50.206;15.978;2022-11-15T14:40:00;98448.03;;;8.81;100.00
68169;BME280;54981;50.206;15.978;2022-11-15T14:42:26;98448.38;;;8.90;100.00
68169;BME280;54981;50.206;15.978;2022-11-15T14:44:51;98438.19;;;8.83;100.00
68169;BME280;54981;50.206;15.978;2022-11-15T14:47:17;98436.53;;;8.80;100.00
68169;BME280;54981;50.206;15.978;2022-11-15T14:49:43;98432.78;;;8.84;100.00